Time;durP1;ratioP1;P1;durP2;ratioP2;P2;SDS_P1;SDS_P2;PMS_P1;PMS_P2;Temp;Humidity;BMP_temperature;BMP_pressure;BME280_temperature;BME280_humidity;BME280_pressure;Samples;Min_cycle;Max_cycle;Signal;HPM_P1;HPM_P2
2023/08/19 00:00:41;;;;;;;10.90;9.70;;;24.00;99.90;;;;;;5003071;28;20237;-74
2023/08/19 00:03:06;;;;;;;11.77;9.63;;;24.00;99.90;;;;;;5002919;28;20229;-74
2023/08/19 00:05:32;;;;;;;10.98;9.90;;;24.00;99.90;;;;;;5001439;28;20320;-71
2023/08/19 00:07:58;;;;;;;10.20;9.23;;;24.00;99.90;;;;;;5003404;28;20292;-74
2023/08/19 00:10:23;;;;;;;11.05;9.30;;;23.90;99.90;;;;;;5000536;28;20178;-69
2023/08/19 00:12:49;;;;;;;11.55;10.05;;;23.90;99.90;;;;;;5001415;28;20605;-74
2023/08/19 00:15:14;;;;;;;11.07;9.98;;;23.80;99.90;;;;;;5004370;28;20243;-74
2023/08/19 00:17:40;;;;;;;11.55;10.45;;;23.80;99.90;;;;;;5008641;28;20213;-74
2023/08/19 00:20:07;;;;;;;12.60;10.93;;;23.70;99.90;;;;;;5004633;28;20212;-74
2023/08/19 00:22:33;;;;;;;12.15;10.95;;;23.60;99.90;;;;;;4998504;28;20281;-72
2023/08/19 00:24:58;;;;;;;12.02;10.05;;;23.60;99.90;;;;;;5003312;28;20216;-74
2023/08/19 00:27:24;;;;;;;13.23;10.82;;;23.70;99.90;;;;;;5001538;28;20693;-70
2023/08/19 00:29:49;;;;;;;11.55;10.40;;;23.70;99.90;;;;;;5004404;28;20208;-72
2023/08/19 00:32:15;;;;;;;12.65;10.68;;;23.80;99.90;;;;;;5006827;28;20213;-72
2023/08/19 00:34:41;;;;;;;10.75;9.57;;;23.80;99.90;;;;;;5002592;28;20206;-72
2023/08/19 00:37:07;;;;;;;11.48;9.68;;;23.70;99.90;;;;;;5003538;28;20192;-72
2023/08/19 00:39:33;;;;;;;10.82;9.27;;;23.80;99.90;;;;;;5001744;28;20217;-72
2023/08/19 00:41:59;;;;;;;12.18;10.93;;;23.80;99.90;;;;;;5003169;28;20213;-72
2023/08/19 00:44:25;;;;;;;12.77;10.75;;;23.70;99.90;;;;;;5004510;28;20219;-72
2023/08/19 00:46:51;;;;;;;11.68;10.48;;;23.70;99.90;;;;;;4996337;28;20577;-75
2023/08/19 00:49:16;;;;;;;12.77;11.07;;;23.70;99.90;;;;;;5004725;28;20216;-72
2023/08/19 00:51:42;;;;;;;12.13;10.27;;;23.70;99.90;;;;;;5000284;28;20217;-73
2023/08/19 00:54:08;;;;;;;13.52;10.45;;;23.70;99.90;;;;;;5001679;28;20221;-72
2023/08/19 00:56:34;;;;;;;13.65;10.90;;;23.60;99.90;;;;;;5001005;28;20693;-73
2023/08/19 00:59:00;;;;;;;12.48;10.10;;;23.60;99.90;;;;;;5005005;28;20676;-73
2023/08/19 01:01:25;;;;;;;12.52;10.32;;;23.60;99.90;;;;;;5004253;28;20181;-72
2023/08/19 01:03:51;;;;;;;13.75;10.30;;;23.60;99.90;;;;;;5001532;28;20170;-72
2023/08/19 01:06:27;;;;;;;12.55;11.25;;;23.60;99.90;;;;;;5000715;28;20236;-72
2023/08/19 01:09:04;;;;;;;11.80;10.60;;;23.60;99.90;;;;;;5003056;28;20288;-72
2023/08/19 01:11:33;;;;;;;13.55;11.15;;;23.60;99.90;;;;;;5007207;28;20209;-72
2023/08/19 01:14:43;;;;;;;12.23;10.75;;;23.60;99.90;;;;;;5003216;28;20683;-73
2023/08/19 01:17:14;;;;;;;12.02;10.82;;;23.50;99.90;;;;;;4998739;28;20275;-72
2023/08/19 01:19:41;;;;;;;14.00;11.35;;;23.40;99.90;;;;;;4999860;28;20333;-71
2023/08/19 01:22:10;;;;;;;13.38;10.48;;;23.40;99.90;;;;;;4996915;28;20555;-71
2023/08/19 01:24:40;;;;;;;12.13;11.00;;;23.50;99.90;;;;;;4998117;28;20205;-72
2023/08/19 01:27:06;;;;;;;12.27;11.07;;;23.40;99.90;;;;;;5000956;28;20217;-72
2023/08/19 01:29:33;;;;;;;13.23;11.00;;;23.30;99.90;;;;;;5001903;28;20209;-72
2023/08/19 01:31:59;;;;;;;12.13;10.68;;;23.20;99.90;;;;;;5000588;28;20285;-72
2023/08/19 01:34:25;;;;;;;12.25;10.95;;;23.20;99.90;;;;;;5002110;28;20173;-70
2023/08/19 01:37:01;;;;;;;13.65;11.68;;;23.30;99.90;;;;;;5002615;28;20668;-72
2023/08/19 01:39:29;;;;;;;12.98;10.95;;;23.20;99.90;;;;;;5004989;28;20208;-72
2023/08/19 01:41:55;;;;;;;12.35;10.82;;;23.10;99.90;;;;;;5002550;28;20208;-72
2023/08/19 01:44:22;;;;;;;13.05;11.70;;;23.10;99.90;;;;;;4999007;28;20743;-75
2023/08/19 01:46:47;;;;;;;12.18;10.98;;;23.10;99.90;;;;;;5003589;28;20225;-75
2023/08/19 01:49:13;;;;;;;11.80;10.50;;;23.00;99.90;;;;;;5002543;28;20766;-73
2023/08/19 01:51:38;;;;;;;12.20;10.75;;;22.90;99.90;;;;;;4995862;28;20209;-75
2023/08/19 01:54:04;;;;;;;14.15;11.35;;;23.00;99.90;;;;;;5006231;28;20205;-75
2023/08/19 01:56:30;;;;;;;11.93;10.77;;;23.00;99.90;;;;;;4994435;28;20248;-74
2023/08/19 01:58:56;;;;;;;12.23;11.13;;;22.90;99.90;;;;;;4998654;28;20932;-72
2023/08/19 02:01:22;;;;;;;12.35;10.90;;;22.90;99.90;;;;;;5002017;28;20180;-72
2023/08/19 02:03:47;;;;;;;12.13;10.70;;;22.90;99.90;;;;;;5000212;28;20193;-72
2023/08/19 02:06:13;;;;;;;16.05;11.05;;;22.90;99.90;;;;;;5001277;28;20237;-72
2023/08/19 02:08:39;;;;;;;12.98;11.63;;;22.90;99.90;;;;;;5000286;28;20217;-72
2023/08/19 02:11:04;;;;;;;12.20;10.75;;;22.80;99.90;;;;;;5000666;28;20202;-73
2023/08/19 02:13:30;;;;;;;13.13;11.68;;;22.90;99.90;;;;;;5000805;28;20230;-72
2023/08/19 02:15:55;;;;;;;11.63;10.30;;;22.80;99.90;;;;;;5000241;28;20688;-72
2023/08/19 02:18:22;;;;;;;13.50;11.63;;;22.90;99.90;;;;;;5001414;28;20209;-72
2023/08/19 02:20:48;;;;;;;11.93;10.70;;;22.90;99.90;;;;;;4998366;28;20213;-72
2023/08/19 02:23:13;;;;;;;12.38;11.05;;;22.80;99.90;;;;;;5005432;28;20680;-72
2023/08/19 02:25:39;;;;;;;14.65;11.23;;;22.80;99.90;;;;;;5000542;28;20731;-71
2023/08/19 02:28:05;;;;;;;13.30;11.07;;;22.70;99.90;;;;;;5002226;28;20181;-72
2023/08/19 02:30:33;;;;;;;11.85;10.65;;;22.70;99.90;;;;;;4999257;28;20240;-71
2023/08/19 02:33:06;;;;;;;13.68;11.73;;;22.70;99.90;;;;;;5001472;28;20209;-72
2023/08/19 02:35:31;;;;;;;14.90;13.05;;;22.80;99.90;;;;;;4998511;28;20229;-72
2023/08/19 02:37:57;;;;;;;12.63;11.30;;;22.80;99.90;;;;;;4997409;28;20303;-73
2023/08/19 02:40:23;;;;;;;12.90;11.15;;;22.90;99.90;;;;;;4984699;28;20186;-72
2023/08/19 02:42:48;;;;;;;12.07;10.95;;;22.70;99.90;;;;;;5005580;28;20722;-73
2023/08/19 02:45:14;;;;;;;13.50;12.10;;;22.70;99.90;;;;;;5010192;28;20220;-73
2023/08/19 02:47:39;;;;;;;13.27;10.90;;;22.80;99.90;;;;;;5009452;28;20243;-72
2023/08/19 02:50:06;;;;;;;14.00;11.57;;;22.70;99.90;;;;;;5009629;28;20201;-72
2023/08/19 02:52:31;;;;;;;13.15;11.82;;;22.80;99.90;;;;;;5006462;28;20173;-71
2023/08/19 02:54:57;;;;;;;12.63;11.32;;;22.70;99.90;;;;;;5008881;28;20187;-73
2023/08/19 02:57:23;;;;;;;13.63;11.35;;;22.60;99.90;;;;;;5008101;28;20209;-72
2023/08/19 02:59:48;;;;;;;13.57;11.02;;;22.60;99.90;;;;;;5005068;28;20210;-72
2023/08/19 03:02:14;;;;;;;13.18;11.30;;;22.60;99.90;;;;;;5007701;28;20217;-73
2023/08/19 03:04:39;;;;;;;15.45;11.45;;;22.70;99.90;;;;;;5003748;28;20284;-71
2023/08/19 03:07:05;;;;;;;13.55;12.00;;;22.70;99.90;;;;;;5007025;28;20235;-73
2023/08/19 03:09:31;;;;;;;12.48;11.18;;;22.70;99.90;;;;;;5003520;28;20680;-73
2023/08/19 03:11:56;;;;;;;11.85;10.68;;;22.70;99.90;;;;;;5004764;28;20220;-73
2023/08/19 03:14:22;;;;;;;13.18;11.85;;;22.60;99.90;;;;;;5012897;28;20255;-72
2023/08/19 03:16:49;;;;;;;14.52;11.65;;;22.50;99.90;;;;;;5006368;28;20213;-74
2023/08/19 03:19:15;;;;;;;13.40;11.13;;;22.50;99.90;;;;;;5004011;28;20376;-74
2023/08/19 03:21:41;;;;;;;14.60;12.23;;;22.40;99.90;;;;;;4999972;28;20293;-72
2023/08/19 03:24:07;;;;;;;13.75;12.20;;;22.40;99.90;;;;;;5009428;28;20209;-75
2023/08/19 03:26:32;;;;;;;12.93;11.63;;;22.40;99.90;;;;;;5009695;28;20602;-72
2023/08/19 03:28:58;;;;;;;12.85;11.65;;;22.30;99.90;;;;;;5008349;28;20214;-73
2023/08/19 03:31:24;;;;;;;13.77;12.30;;;22.20;99.90;;;;;;5009085;28;20268;-71
2023/08/19 03:33:51;;;;;;;14.20;12.07;;;22.30;99.90;;;;;;5004223;28;20265;-73
2023/08/19 03:36:16;;;;;;;13.43;11.90;;;22.20;99.90;;;;;;5007654;28;20581;-73
2023/08/19 03:38:42;;;;;;;14.68;13.13;;;22.20;99.90;;;;;;5004233;28;20212;-71
2023/08/19 03:41:07;;;;;;;15.02;13.52;;;22.20;99.90;;;;;;5025123;23;20295;-73
2023/08/19 03:43:33;;;;;;;13.95;12.10;;;22.20;99.90;;;;;;5013605;28;20177;-74
2023/08/19 03:45:58;;;;;;;13.18;11.77;;;22.20;99.90;;;;;;5005940;28;20232;-72
2023/08/19 03:48:24;;;;;;;14.25;11.93;;;22.30;99.90;;;;;;5003009;28;20708;-72
2023/08/19 03:50:50;;;;;;;14.45;13.07;;;22.30;99.90;;;;;;5009731;28;20216;-73
2023/08/19 03:53:15;;;;;;;14.05;12.63;;;22.30;99.90;;;;;;5001744;28;20210;-72
2023/08/19 03:55:41;;;;;;;15.97;13.60;;;22.20;99.90;;;;;;5003539;28;20857;-72
2023/08/19 03:58:06;;;;;;;14.35;12.85;;;22.10;99.90;;;;;;5001612;28;20188;-73
2023/08/19 04:00:32;;;;;;;16.80;13.23;;;22.20;99.90;;;;;;5004182;28;20240;-73
2023/08/19 04:02:57;;;;;;;14.57;13.13;;;22.10;99.90;;;;;;4999147;28;20268;-73
2023/08/19 04:05:23;;;;;;;15.00;13.43;;;22.20;99.90;;;;;;5003956;28;20300;-72
2023/08/19 04:07:49;;;;;;;15.68;13.35;;;22.20;99.90;;;;;;5001189;28;20209;-73
2023/08/19 04:10:14;;;;;;;14.77;13.18;;;22.20;99.90;;;;;;5004068;28;20217;-73
2023/08/19 04:12:40;;;;;;;14.40;12.90;;;22.30;99.90;;;;;;5000718;28;20237;-72
2023/08/19 04:15:06;;;;;;;13.75;12.38;;;22.30;99.90;;;;;;5003932;28;20243;-73
2023/08/19 04:17:35;;;;;;;15.43;13.80;;;22.40;99.90;;;;;;4995907;28;20206;-73
2023/08/19 04:20:01;;;;;;;14.73;12.77;;;22.50;99.90;;;;;;5000446;28;20209;-72
2023/08/19 04:22:26;;;;;;;16.02;12.57;;;22.60;99.90;;;;;;5000517;28;20205;-70
2023/08/19 04:24:52;;;;;;;15.60;13.38;;;22.70;99.90;;;;;;4999343;28;20174;-73
2023/08/19 04:27:18;;;;;;;14.77;13.00;;;22.80;99.90;;;;;;5005574;28;20221;-73
2023/08/19 04:29:44;;;;;;;17.95;13.65;;;22.90;99.90;;;;;;5010937;28;20213;-73
2023/08/19 04:32:10;;;;;;;14.60;12.93;;;22.90;99.90;;;;;;5002533;28;20651;-73
2023/08/19 04:34:35;;;;;;;14.48;13.00;;;22.90;99.90;;;;;;4996626;28;20185;-72
2023/08/19 04:37:01;;;;;;;15.75;13.90;;;22.90;99.90;;;;;;4999537;28;20244;-73
2023/08/19 04:39:27;;;;;;;14.90;13.05;;;23.10;99.90;;;;;;5003115;28;20217;-72
2023/08/19 04:41:53;;;;;;;15.18;13.68;;;23.90;99.90;;;;;;4994858;28;20243;-73
2023/08/19 04:44:19;;;;;;;15.43;13.93;;;25.00;99.90;;;;;;5003683;28;20645;-74
2023/08/19 04:46:45;;;;;;;12.82;11.43;;;25.70;99.90;;;;;;5001431;28;20303;-74
2023/08/19 04:49:10;;;;;;;11.88;10.77;;;26.60;99.90;;;;;;5002051;28;20264;-74
2023/08/19 04:51:36;;;;;;;12.70;11.40;;;27.30;99.90;;;;;;5000921;28;20216;-73
2023/08/19 04:54:03;;;;;;;13.20;11.65;;;28.20;99.90;;;;;;4998619;28;20213;-73
2023/08/19 04:56:29;;;;;;;12.70;11.13;;;28.40;99.90;;;;;;4996816;28;20209;-74
2023/08/19 04:58:55;;;;;;;13.73;12.20;;;28.70;99.90;;;;;;5002701;28;20635;-73
2023/08/19 05:01:20;;;;;;;12.70;11.38;;;29.10;99.90;;;;;;4999387;28;20197;-73
2023/08/19 05:03:46;;;;;;;13.52;12.15;;;28.70;99.90;;;;;;4997588;28;20589;-74
2023/08/19 05:06:12;;;;;;;13.13;11.50;;;28.90;99.90;;;;;;4988004;28;20263;-74
2023/08/19 05:08:38;;;;;;;12.80;11.50;;;29.00;99.90;;;;;;5001350;28;20602;-74
2023/08/19 05:11:03;;;;;;;14.10;12.70;;;28.40;99.90;;;;;;4995964;28;20245;-74
2023/08/19 05:13:29;;;;;;;14.20;12.73;;;28.40;99.90;;;;;;5007447;28;20189;-73
2023/08/19 05:15:54;;;;;;;12.60;11.40;;;27.50;99.90;;;;;;4994303;28;20717;-74
2023/08/19 05:18:20;;;;;;;14.25;12.85;;;27.30;99.90;;;;;;4998854;28;20264;-74
2023/08/19 05:20:45;;;;;;;15.38;13.07;;;26.30;99.90;;;;;;4996911;28;20287;-72
2023/08/19 05:23:11;;;;;;;17.00;13.73;;;26.00;99.90;;;;;;4993393;28;20268;-73
2023/08/19 05:25:37;;;;;;;20.08;15.57;;;25.70;99.90;;;;;;5002601;28;20235;-73
2023/08/19 05:28:03;;;;;;;17.23;13.95;;;25.70;99.90;;;;;;4996777;28;20181;-74
2023/08/19 05:30:29;;;;;;;14.90;13.30;;;25.80;99.90;;;;;;5002911;28;20212;-74
2023/08/19 05:32:54;;;;;;;18.95;16.33;;;25.50;99.90;;;;;;4996135;28;20205;-73
2023/08/19 05:35:20;;;;;;;16.33;14.63;;;25.50;99.90;;;;;;5001982;28;20284;-73
2023/08/19 05:37:45;;;;;;;15.95;13.20;;;25.70;99.90;;;;;;4999017;28;20262;-74
2023/08/19 05:40:11;;;;;;;14.50;13.00;;;25.70;99.90;;;;;;4995951;28;20181;-74
2023/08/19 05:42:37;;;;;;;16.02;14.27;;;25.70;99.90;;;;;;5000183;28;20326;-74
2023/08/19 05:45:02;;;;;;;15.30;13.80;;;25.80;99.90;;;;;;5006327;28;20209;-73
2023/08/19 05:47:29;;;;;;;15.75;12.45;;;26.60;99.90;;;;;;4994718;28;20202;-73
2023/08/19 05:49:54;;;;;;;14.50;12.98;;;26.50;99.90;;;;;;5002374;28;20216;-73
2023/08/19 05:52:20;;;;;;;14.98;13.07;;;26.30;99.90;;;;;;4998932;28;20194;-74
2023/08/19 05:54:45;;;;;;;15.77;14.18;;;25.80;99.90;;;;;;5002349;28;20177;-74
2023/08/19 05:57:11;;;;;;;14.35;12.95;;;25.30;99.90;;;;;;4995652;28;20288;-73
2023/08/19 05:59:37;;;;;;;15.55;13.90;;;24.90;99.90;;;;;;5005036;28;20208;-72
2023/08/19 06:02:02;;;;;;;15.70;13.90;;;24.90;99.90;;;;;;5000871;28;20709;-73
2023/08/19 06:04:28;;;;;;;16.58;14.02;;;24.80;99.90;;;;;;5005064;28;20181;-72
2023/08/19 06:06:54;;;;;;;16.48;13.90;;;24.90;99.90;;;;;;4999938;28;20296;-73
2023/08/19 06:09:20;;;;;;;17.20;15.50;;;24.90;99.90;;;;;;4997473;28;20206;-73
2023/08/19 06:11:51;;;;;;;18.67;16.67;;;24.80;99.90;;;;;;4999687;28;20224;-73
2023/08/19 06:14:17;;;;;;;15.23;13.63;;;24.80;99.90;;;;;;5000756;28;20221;-73
2023/08/19 06:16:43;;;;;;;19.30;15.02;;;24.70;99.90;;;;;;4993775;28;20214;-73
2023/08/19 06:19:09;;;;;;;18.38;16.25;;;24.80;99.90;;;;;;5001423;28;20169;-73
2023/08/19 06:21:35;;;;;;;19.23;14.70;;;24.90;99.90;;;;;;5000581;28;20210;-74
2023/08/19 06:24:00;;;;;;;16.30;14.63;;;24.70;99.90;;;;;;4999388;28;20200;-73
2023/08/19 06:26:26;;;;;;;16.33;14.65;;;24.90;99.90;;;;;;5011342;28;20353;-72
2023/08/19 06:28:52;;;;;;;16.27;14.57;;;24.90;99.90;;;;;;4999744;28;20243;-74
2023/08/19 06:31:18;;;;;;;15.95;14.07;;;25.00;99.90;;;;;;4991452;28;20214;-72
2023/08/19 06:33:44;;;;;;;19.55;15.05;;;24.80;99.90;;;;;;4998813;28;20195;-73
2023/08/19 06:36:16;;;;;;;16.90;14.70;;;24.90;99.90;;;;;;5001694;28;20254;-74
2023/08/19 06:38:48;;;;;;;16.48;14.48;;;24.60;99.90;;;;;;4995625;28;20216;-74
2023/08/19 06:41:16;;;;;;;16.05;14.25;;;24.70;99.90;;;;;;5000661;28;20221;-75
2023/08/19 06:43:42;;;;;;;14.77;13.27;;;25.50;99.90;;;;;;4995779;28;20240;-72
2023/08/19 06:46:08;;;;;;;14.80;13.20;;;26.10;99.90;;;;;;4999071;28;20213;-72
2023/08/19 06:48:35;;;;;;;15.75;14.25;;;27.50;99.90;;;;;;4998385;28;20702;-72
2023/08/19 06:51:03;;;;;;;16.75;11.70;;;28.40;99.90;;;;;;5001102;28;20228;-73
2023/08/19 06:53:29;;;;;;;12.80;11.52;;;30.00;99.90;;;;;;4987277;28;20297;-71
2023/08/19 06:56:43;;;;;;;13.77;12.13;;;31.90;99.90;;;;;;4998049;28;20292;-72
2023/08/19 06:59:19;;;;;;;12.13;10.77;;;31.90;99.90;;;;;;4990103;28;20643;-74
2023/08/19 07:01:50;;;;;;;14.07;12.18;;;32.00;99.90;;;;;;5001151;28;20226;-72
2023/08/19 07:04:22;;;;;;;13.35;12.15;;;31.20;99.90;;;;;;4998392;28;20185;-72
2023/08/19 07:06:48;;;;;;;12.38;11.18;;;32.00;99.90;;;;;;5001035;28;20208;-71
2023/08/19 07:09:14;;;;;;;14.40;12.32;;;33.50;99.90;;;;;;4995399;28;20225;-72
2023/08/19 07:11:40;;;;;;;12.50;11.32;;;33.50;99.90;;;;;;4999910;28;20207;-74
2023/08/19 07:14:06;;;;;;;12.82;11.52;;;34.90;99.90;;;;;;4994486;28;20231;-74
2023/08/19 07:16:35;;;;;;;12.07;11.07;;;36.30;99.90;;;;;;4999309;28;20640;-74
2023/08/19 07:19:10;;;;;;;13.77;12.30;;;36.40;99.90;;;;;;5001447;28;20595;-73
2023/08/19 07:21:37;;;;;;;11.48;10.48;;;36.30;99.90;;;;;;4994037;28;20219;-73
2023/08/19 07:24:03;;;;;;;12.07;11.02;;;36.70;99.90;;;;;;5000992;28;20229;-75
2023/08/19 07:26:30;;;;;;;11.40;10.27;;;37.80;99.90;;;;;;5001821;28;20223;-74
2023/08/19 07:28:56;;;;;;;13.40;12.20;;;37.70;99.90;;;;;;4995287;28;20219;-72
2023/08/19 07:31:22;;;;;;;12.68;11.32;;;37.70;99.90;;;;;;5008433;28;20205;-73
2023/08/19 07:33:48;;;;;;;12.63;11.32;;;36.50;99.90;;;;;;4994951;28;20185;-75
2023/08/19 07:36:14;;;;;;;12.77;11.68;;;37.00;99.90;;;;;;5000987;28;20201;-76
2023/08/19 07:38:39;;;;;;;12.07;11.10;;;37.10;99.90;;;;;;5011151;28;20691;-74
2023/08/19 07:41:05;;;;;;;12.93;11.57;;;37.30;99.90;;;;;;4994522;28;20732;-76
2023/08/19 07:43:31;;;;;;;13.30;12.00;;;35.60;99.90;;;;;;4990386;28;20182;-71
2023/08/19 07:45:56;;;;;;;12.20;11.05;;;36.60;99.90;;;;;;4988807;28;20209;-74
2023/08/19 07:48:22;;;;;;;12.40;11.30;;;36.50;99.90;;;;;;4995409;28;20237;-75
2023/08/19 07:50:47;;;;;;;13.60;12.20;;;37.60;99.90;;;;;;4992814;28;20574;-73
2023/08/19 07:53:13;;;;;;;12.75;11.75;;;37.80;99.90;;;;;;4991552;28;20259;-72
2023/08/19 07:55:39;;;;;;;13.18;11.98;;;37.00;99.90;;;;;;4993975;28;20205;-75
2023/08/19 07:58:05;;;;;;;12.27;11.27;;;35.10;99.90;;;;;;4992590;28;20177;-75
2023/08/19 08:00:30;;;;;;;11.35;10.45;;;35.20;99.90;;;;;;4993188;28;20196;-76
2023/08/19 08:02:56;;;;;;;12.85;11.57;;;36.20;99.90;;;;;;4996876;28;20284;-73
2023/08/19 08:05:21;;;;;;;10.90;9.88;;;37.10;99.90;;;;;;4997707;28;20243;-74
2023/08/19 08:07:47;;;;;;;12.68;11.35;;;37.70;99.90;;;;;;4990572;28;20231;-75
2023/08/19 08:10:12;;;;;;;11.65;10.55;;;36.80;99.90;;;;;;4993217;28;20173;-74
2023/08/19 08:12:38;;;;;;;10.80;9.88;;;37.10;99.90;;;;;;4986271;28;20731;-74
2023/08/19 08:15:04;;;;;;;12.32;11.20;;;37.60;99.90;;;;;;4992223;28;20706;-74
2023/08/19 08:17:30;;;;;;;11.70;10.57;;;37.50;99.90;;;;;;4993615;28;20208;-74
2023/08/19 08:19:57;;;;;;;11.80;10.63;;;37.50;99.90;;;;;;4997205;28;20228;-75
2023/08/19 08:22:23;;;;;;;12.57;11.45;;;38.50;99.90;;;;;;4996943;28;20201;-74
2023/08/19 08:24:49;;;;;;;11.35;10.25;;;37.60;99.90;;;;;;5004911;28;20683;-76
2023/08/19 08:27:15;;;;;;;13.20;12.00;;;37.40;99.90;;;;;;5004277;28;20224;-74
2023/08/19 08:29:40;;;;;;;10.93;10.02;;;36.90;99.90;;;;;;4997940;28;20251;-75
2023/08/19 08:32:06;;;;;;;11.25;10.05;;;34.80;99.90;;;;;;5003793;28;20338;-74
2023/08/19 08:34:32;;;;;;;11.52;10.45;;;35.00;99.90;;;;;;5004193;28;20178;-75
2023/08/19 08:36:57;;;;;;;12.43;11.23;;;34.60;99.90;;;;;;5000679;28;20177;-74
2023/08/19 08:39:23;;;;;;;11.10;10.00;;;34.00;99.90;;;;;;5000624;28;20212;-77
2023/08/19 08:41:50;;;;;;;12.13;11.00;;;35.30;99.90;;;;;;5001940;28;20217;-75
2023/08/19 08:44:16;;;;;;;11.43;10.52;;;34.70;99.90;;;;;;4998588;28;20209;-75
2023/08/19 08:46:45;;;;;;;10.98;9.88;;;34.60;99.90;;;;;;4997339;28;20224;-74
2023/08/19 08:49:11;;;;;;;11.02;9.93;;;34.10;99.90;;;;;;5005051;28;20183;-75
2023/08/19 08:51:38;;;;;;;10.98;9.93;;;34.20;99.90;;;;;;4997461;28;20288;-75
2023/08/19 08:54:05;;;;;;;11.88;10.85;;;34.10;99.90;;;;;;5001174;28;20239;-73
2023/08/19 08:56:31;;;;;;;12.15;10.95;;;35.00;99.90;;;;;;4991333;28;20244;-75
2023/08/19 08:58:58;;;;;;;11.30;10.32;;;35.20;99.90;;;;;;4995859;28;20243;-77
2023/08/19 09:01:26;;;;;;;11.40;10.27;;;35.20;99.90;;;;;;5002440;28;20254;-76
2023/08/19 09:03:57;;;;;;;11.18;10.18;;;35.40;99.90;;;;;;5000043;28;20171;-75
2023/08/19 09:06:23;;;;;;;11.18;10.05;;;35.20;99.90;;;;;;5001475;28;20212;-75
2023/08/19 09:08:58;;;;;;;10.50;9.65;;;34.80;99.90;;;;;;4996155;28;20200;-75
2023/08/19 09:11:26;;;;;;;9.90;9.00;;;34.90;99.90;;;;;;4991591;28;20567;-73
2023/08/19 09:13:59;;;;;;;11.50;10.27;;;35.90;99.90;;;;;;5002492;28;20209;-73
2023/08/19 09:16:25;;;;;;;11.30;10.20;;;36.40;99.90;;;;;;5000841;28;20191;-72
2023/08/19 09:18:51;;;;;;;11.45;10.35;;;36.20;99.90;;;;;;5002678;28;20256;-74
2023/08/19 09:21:17;;;;;;;12.20;10.98;;;36.00;99.90;;;;;;4995774;28;20641;-72
2023/08/19 09:23:42;;;;;;;12.55;10.40;;;36.00;99.90;;;;;;4998447;28;20304;-74
2023/08/19 09:26:11;;;;;;;11.25;10.15;;;34.40;99.90;;;;;;4993694;28;20606;-74
2023/08/19 09:28:37;;;;;;;11.82;10.77;;;33.90;99.90;;;;;;4991561;28;20228;-74
2023/08/19 09:31:20;;;;;;;12.10;11.00;;;33.80;99.90;;;;;;4993465;28;20575;-73
2023/08/19 09:33:49;;;;;;;11.82;10.82;;;34.30;99.90;;;;;;4996386;28;20298;-73
2023/08/19 09:36:15;;;;;;;12.13;10.75;;;34.10;99.90;;;;;;5001722;28;20266;-74
2023/08/19 09:38:41;;;;;;;11.52;10.32;;;33.50;99.90;;;;;;5002326;28;20611;-73
2023/08/19 09:41:07;;;;;;;10.68;9.23;;;33.10;99.90;;;;;;5004018;28;20299;-74
2023/08/19 09:43:37;;;;;;;9.35;8.55;;;32.80;99.90;;;;;;5000010;28;20178;-73
2023/08/19 09:46:03;;;;;;;11.63;8.93;;;32.70;99.90;;;;;;5033751;22;20234;-71
2023/08/19 09:48:28;;;;;;;10.40;9.50;;;33.00;99.90;;;;;;5005133;28;20209;-70
2023/08/19 09:50:54;;;;;;;11.80;8.93;;;32.80;99.90;;;;;;5008046;28;20201;-71
2023/08/19 09:53:20;;;;;;;9.45;8.55;;;32.80;99.90;;;;;;5001341;28;20232;-70
2023/08/19 09:55:48;;;;;;;10.30;9.38;;;33.00;99.90;;;;;;5002626;28;20591;-71
2023/08/19 09:58:14;;;;;;;11.13;10.10;;;32.90;99.90;;;;;;5001130;28;20187;-72
2023/08/19 10:00:40;;;;;;;11.50;10.40;;;32.80;99.90;;;;;;4998402;28;20201;-71
2023/08/19 10:03:06;;;;;;;11.18;9.07;;;32.50;99.90;;;;;;5009124;28;20201;-71
2023/08/19 10:05:37;;;;;;;10.32;9.43;;;32.20;99.90;;;;;;5004268;28;20228;-71
2023/08/19 10:08:24;;;;;;;10.95;9.93;;;32.30;99.90;;;;;;5007017;28;20805;-71
2023/08/19 10:10:50;;;;;;;10.00;9.10;;;31.60;99.90;;;;;;5004150;28;20212;-70
2023/08/19 10:13:16;;;;;;;9.95;8.98;;;32.20;99.90;;;;;;4999854;28;20651;-69
2023/08/19 10:15:43;;;;;;;11.48;9.32;;;32.00;99.90;;;;;;5004904;28;20224;-71
2023/08/19 10:18:17;;;;;;;10.93;9.93;;;32.70;99.90;;;;;;4999587;28;20592;-71
2023/08/19 10:20:45;;;;;;;11.95;10.73;;;32.50;99.90;;;;;;5004484;28;20232;-70
2023/08/19 10:23:13;;;;;;;11.38;10.32;;;32.20;99.90;;;;;;5000574;28;20209;-69
2023/08/19 10:25:41;;;;;;;10.68;9.65;;;31.90;99.90;;;;;;5001510;28;20304;-70
2023/08/19 10:28:28;;;;;;;12.00;9.32;;;31.80;99.90;;;;;;4999819;28;20736;-70
2023/08/19 10:31:13;;;;;;;10.38;9.38;;;31.80;99.90;;;;;;5000976;28;20683;-70
2023/08/19 10:33:41;;;;;;;10.98;9.07;;;32.00;99.90;;;;;;5000688;28;20221;-70
2023/08/19 10:36:08;;;;;;;10.27;9.30;;;31.90;99.90;;;;;;5005057;28;20233;-70
2023/08/19 10:38:45;;;;;;;10.90;9.90;;;31.70;99.90;;;;;;4997302;28;20283;-70
2023/08/19 10:41:28;;;;;;;10.05;9.07;;;32.00;99.90;;;;;;5010258;28;20278;-71
2023/08/19 10:44:00;;;;;;;9.90;9.00;;;31.70;99.90;;;;;;4992493;28;20920;-70
2023/08/19 10:46:37;;;;;;;11.60;9.60;;;31.50;99.90;;;;;;4997286;28;20638;-70
2023/08/19 10:49:07;;;;;;;9.82;8.88;;;31.90;99.90;;;;;;5000714;28;20165;-70
2023/08/19 10:51:57;;;;;;;9.32;8.43;;;32.20;99.90;;;;;;4998010;28;20556;-70
2023/08/19 10:54:34;;;;;;;10.38;9.02;;;32.50;99.90;;;;;;4991959;28;20688;-69
2023/08/19 10:57:06;;;;;;;11.07;8.32;;;32.10;99.90;;;;;;4994964;28;20670;-70
2023/08/19 10:59:34;;;;;;;9.88;8.88;;;32.40;99.90;;;;;;4981509;28;20213;-70
2023/08/19 11:02:00;;;;;;;11.30;10.10;;;32.20;99.90;;;;;;5003660;28;20205;-70
2023/08/19 11:04:25;;;;;;;10.38;9.40;;;32.00;99.90;;;;;;5000040;28;20577;-71
2023/08/19 11:06:56;;;;;;;10.63;9.30;;;31.80;99.90;;;;;;5006483;28;20208;-72
2023/08/19 11:09:26;;;;;;;9.18;8.27;;;32.20;99.90;;;;;;4998130;28;20218;-72
2023/08/19 11:11:56;;;;;;;9.73;8.82;;;32.60;99.90;;;;;;4983507;28;20309;-71
2023/08/19 11:14:23;;;;;;;10.13;9.23;;;32.90;99.90;;;;;;4980634;28;20309;-69
2023/08/19 11:16:53;;;;;;;9.40;8.48;;;32.80;99.90;;;;;;4989437;28;20263;-70
2023/08/19 11:19:19;;;;;;;10.07;9.18;;;32.60;99.90;;;;;;5000206;28;20775;-72
2023/08/19 11:21:46;;;;;;;9.18;8.27;;;32.00;99.90;;;;;;5002240;28;20182;-72
2023/08/19 11:24:12;;;;;;;9.50;8.57;;;32.10;99.90;;;;;;5002440;28;20213;-71
2023/08/19 11:26:45;;;;;;;9.27;8.30;;;31.90;99.90;;;;;;4999969;28;20228;-71
2023/08/19 11:29:11;;;;;;;9.48;8.38;;;32.30;99.90;;;;;;4998141;28;20651;-72
2023/08/19 11:31:38;;;;;;;9.27;8.45;;;32.40;99.90;;;;;;5000184;28;20241;-71
2023/08/19 11:34:08;;;;;;;8.98;8.18;;;32.30;99.90;;;;;;4994780;28;20185;-72
2023/08/19 11:36:36;;;;;;;10.15;9.15;;;32.10;99.90;;;;;;4995857;28;20214;-71
2023/08/19 11:39:03;;;;;;;8.75;7.93;;;31.90;99.90;;;;;;5002277;28;20765;-71
2023/08/19 11:41:29;;;;;;;8.98;8.07;;;32.00;99.90;;;;;;4996218;28;20221;-71
2023/08/19 11:43:57;;;;;;;9.25;8.10;;;32.00;99.90;;;;;;5003144;28;20611;-72
2023/08/19 11:46:26;;;;;;;11.48;10.10;;;31.70;99.90;;;;;;5000997;28;20209;-72
2023/08/19 11:48:52;;;;;;;9.40;8.45;;;31.80;99.90;;;;;;5009664;28;20166;-72
2023/08/19 11:51:19;;;;;;;9.00;7.97;;;32.00;99.90;;;;;;4995101;28;20228;-72
2023/08/19 11:53:49;;;;;;;9.43;8.52;;;31.60;99.90;;;;;;4989998;28;20212;-71
2023/08/19 11:56:15;;;;;;;10.75;7.88;;;31.80;99.90;;;;;;4997675;28;20213;-74
2023/08/19 11:58:51;;;;;;;12.10;8.48;;;32.20;99.90;;;;;;5007901;28;20278;-72
2023/08/19 12:01:18;;;;;;;9.60;8.27;;;32.00;99.90;;;;;;4999066;28;20180;-75
2023/08/19 12:03:46;;;;;;;9.63;8.70;;;31.90;99.90;;;;;;5007516;28;20652;-72
2023/08/19 12:06:12;;;;;;;10.55;8.90;;;31.70;99.90;;;;;;4999178;28;20216;-73
2023/08/19 12:08:43;;;;;;;9.90;8.80;;;31.90;99.90;;;;;;5001548;28;20602;-71
2023/08/19 12:11:10;;;;;;;10.25;9.25;;;32.40;99.90;;;;;;5002506;28;20212;-73
2023/08/19 12:13:36;;;;;;;9.48;8.57;;;32.70;99.90;;;;;;4974492;28;20222;-72
2023/08/19 12:16:03;;;;;;;8.25;7.50;;;32.80;99.90;;;;;;4991619;28;20316;-71
2023/08/19 12:18:33;;;;;;;8.98;7.75;;;32.40;99.90;;;;;;4993224;28;20212;-71
2023/08/19 12:21:00;;;;;;;7.70;7.00;;;32.80;99.90;;;;;;5008027;28;20272;-72
2023/08/19 12:23:26;;;;;;;8.20;7.03;;;32.70;99.90;;;;;;4999555;28;20208;-73
2023/08/19 12:25:54;;;;;;;8.50;7.25;;;32.60;99.90;;;;;;4992433;28;20211;-73
2023/08/19 12:28:20;;;;;;;8.68;7.30;;;32.80;99.90;;;;;;4987402;28;20189;-71
2023/08/19 12:30:46;;;;;;;13.05;8.48;;;32.90;99.90;;;;;;4980033;28;20224;-71